Time;durP1;ratioP1;P1;durP2;ratioP2;P2;SDS_P1;SDS_P2;PMS_P1;PMS_P2;Temp;Humidity;BMP_temperature;BMP_pressure;BME280_temperature;BME280_humidity;BME280_pressure;Samples;Min_cycle;Max_cycle;Signal;HPM_P1;HPM_P2
2022/04/20 00:00:55;;;;;;;0.60;0.50;;;5.80;92.80;;;;;;5085164;28;20197;-57
2022/04/20 00:03:40;;;;;;;0.80;0.80;;;5.80;93.00;;;;;;5085109;28;20250;-49
2022/04/20 00:06:25;;;;;;;0.37;0.37;;;5.80;93.30;;;;;;5082621;28;20192;-61
2022/04/20 00:09:11;;;;;;;0.73;0.73;;;5.70;93.60;;;;;;5085359;28;20720;-51
2022/04/20 00:11:55;;;;;;;1.63;0.93;;;5.60;93.70;;;;;;5083859;28;20197;-50
2022/04/20 00:14:40;;;;;;;1.50;0.90;;;5.60;93.60;;;;;;5082568;28;20193;-52
2022/04/20 00:17:24;;;;;;;1.00;0.87;;;5.60;93.90;;;;;;5085830;28;20184;-60
2022/04/20 00:20:09;;;;;;;1.50;0.70;;;5.50;94.10;;;;;;5082906;28;20188;-60
2022/04/20 00:22:53;;;;;;;0.90;0.50;;;5.40;94.20;;;;;;5083723;28;20208;-54
2022/04/20 00:25:39;;;;;;;1.33;0.87;;;5.40;94.30;;;;;;5086223;28;20217;-56
2022/04/20 00:28:23;;;;;;;0.70;0.60;;;5.20;94.50;;;;;;5082346;28;20220;-59
2022/04/20 00:31:08;;;;;;;0.60;0.60;;;5.20;94.80;;;;;;5085522;28;20689;-59
2022/04/20 00:33:52;;;;;;;0.77;0.77;;;5.20;95.10;;;;;;5085847;28;20197;-62
2022/04/20 00:36:37;;;;;;;1.90;0.70;;;5.20;95.00;;;;;;5082014;28;20200;-58
2022/04/20 00:39:21;;;;;;;0.53;0.53;;;5.00;95.20;;;;;;5085355;28;20189;-54
2022/04/20 00:42:06;;;;;;;1.90;0.53;;;5.00;95.30;;;;;;5084074;28;21007;-61
2022/04/20 00:44:51;;;;;;;0.83;0.80;;;4.90;96.00;;;;;;5082258;28;20223;-61
2022/04/20 00:47:37;;;;;;;1.03;0.57;;;5.00;96.30;;;;;;5084908;28;20220;-52
2022/04/20 00:50:22;;;;;;;1.13;0.83;;;5.00;96.40;;;;;;5082402;28;20242;-49
2022/04/20 00:53:06;;;;;;;0.80;0.80;;;5.00;96.50;;;;;;5083791;28;20635;-49
2022/04/20 00:55:51;;;;;;;2.00;0.70;;;4.80;96.60;;;;;;5086199;28;20201;-55
2022/04/20 00:58:38;;;;;;;0.70;0.50;;;4.70;96.90;;;;;;5083152;28;20216;-57
2022/04/20 01:01:23;;;;;;;0.73;0.60;;;4.70;97.40;;;;;;5085883;28;20265;-62
2022/04/20 01:04:07;;;;;;;0.47;0.47;;;4.70;97.80;;;;;;5085254;28;20266;-52
2022/04/20 01:06:52;;;;;;;0.47;0.37;;;4.70;97.60;;;;;;5082573;28;20181;-59
2022/04/20 01:09:37;;;;;;;0.60;0.60;;;4.70;97.90;;;;;;5085724;28;20185;-51
2022/04/20 01:12:21;;;;;;;2.20;0.50;;;4.70;98.10;;;;;;5084298;28;20192;-51
2022/04/20 01:15:06;;;;;;;1.20;0.70;;;4.60;98.00;;;;;;5082690;28;20193;-59
2022/04/20 01:17:51;;;;;;;0.60;0.60;;;4.60;98.60;;;;;;5085885;28;20196;-56
2022/04/20 01:20:35;;;;;;;0.97;0.50;;;4.50;98.80;;;;;;5086033;28;20254;-62
2022/04/20 01:23:19;;;;;;;1.83;0.90;;;4.50;99.00;;;;;;5088199;28;20189;-50
2022/04/20 01:26:10;;;;;;;0.60;0.60;;;4.40;99.30;;;;;;5090036;28;20320;-54
2022/04/20 01:28:55;;;;;;;0.60;0.60;;;4.40;99.60;;;;;;5086084;28;20255;-56
2022/04/20 01:31:40;;;;;;;0.50;0.50;;;4.30;99.60;;;;;;5089472;28;20200;-62
2022/04/20 01:34:24;;;;;;;0.57;0.57;;;4.30;99.80;;;;;;5089182;28;20215;-62
2022/04/20 01:37:09;;;;;;;0.40;0.40;;;4.30;99.90;;;;;;5085743;28;20239;-57
2022/04/20 01:39:53;;;;;;;0.37;0.30;;;4.30;99.90;;;;;;5090043;28;20205;-58
2022/04/20 01:42:38;;;;;;;0.50;0.50;;;4.20;99.90;;;;;;5088415;28;20225;-62
2022/04/20 01:45:22;;;;;;;0.67;0.30;;;4.10;99.90;;;;;;5086404;28;20246;-61
2022/04/20 01:48:07;;;;;;;0.60;0.43;;;4.00;99.90;;;;;;5089748;28;20273;-58
2022/04/20 01:53:55;;;;;;;0.50;0.50;;;4.00;99.90;;;;;;5087269;28;20201;-61
2022/04/20 01:56:39;;;;;;;0.40;0.40;;;4.00;99.90;;;;;;5089219;28;20203;-58
2022/04/20 01:59:24;;;;;;;0.43;0.43;;;4.10;99.90;;;;;;5086173;28;20205;-61
2022/04/20 02:05:12;;;;;;;0.60;0.60;;;4.10;99.90;;;;;;5090239;28;20251;-58
2022/04/20 02:07:57;;;;;;;1.27;0.50;;;3.90;99.90;;;;;;5085557;28;20256;-55
2022/04/20 02:10:41;;;;;;;1.10;0.40;;;3.90;99.90;;;;;;5087701;28;20193;-59
2022/04/20 02:13:26;;;;;;;1.50;0.37;;;3.90;99.90;;;;;;5089346;28;20201;-52
2022/04/20 02:16:10;;;;;;;0.87;0.33;;;3.80;99.90;;;;;;5085949;28;20246;-58
2022/04/20 02:18:56;;;;;;;0.67;0.67;;;3.80;99.90;;;;;;5088854;28;20494;-58
2022/04/20 02:21:40;;;;;;;0.43;0.43;;;3.70;99.90;;;;;;5087865;28;20271;-54
2022/04/20 02:24:24;;;;;;;0.40;0.40;;;3.70;99.90;;;;;;5085905;28;20250;-51
2022/04/20 02:27:10;;;;;;;0.30;0.30;;;3.70;99.90;;;;;;5089382;28;20257;-52
2022/04/20 02:29:54;;;;;;;0.40;0.40;;;3.60;99.90;;;;;;5086500;28;20189;-57
2022/04/20 02:32:39;;;;;;;2.07;0.80;;;3.50;99.90;;;;;;5085510;28;20196;-50
2022/04/20 02:35:24;;;;;;;0.77;0.50;;;3.30;99.90;;;;;;5088887;28;20725;-54
2022/04/20 02:38:10;;;;;;;1.30;0.90;;;3.30;99.90;;;;;;5085428;28;20243;-62
2022/04/20 02:40:54;;;;;;;2.63;1.53;;;3.30;99.90;;;;;;5087314;28;20192;-55
2022/04/20 02:43:39;;;;;;;0.87;0.70;;;3.30;99.90;;;;;;5089079;28;20286;-54
2022/04/20 02:46:24;;;;;;;0.60;0.60;;;3.20;99.90;;;;;;5084724;28;20228;-61
2022/04/20 02:49:08;;;;;;;0.83;0.70;;;3.10;99.90;;;;;;5088103;28;20240;-54
2022/04/20 02:51:52;;;;;;;3.70;2.23;;;3.10;99.90;;;;;;5087735;28;20193;-52
2022/04/20 02:54:36;;;;;;;1.87;1.77;;;3.20;99.90;;;;;;5085359;28;20395;-59
2022/04/20 02:57:21;;;;;;;0.97;0.83;;;3.10;99.90;;;;;;5089380;28;20280;-55
2022/04/20 03:00:06;;;;;;;0.60;0.60;;;3.20;99.90;;;;;;5085344;28;20192;-62
2022/04/20 03:02:51;;;;;;;0.47;0.47;;;3.00;99.90;;;;;;5085234;28;20193;-56
2022/04/20 03:05:35;;;;;;;1.10;0.80;;;3.00;99.90;;;;;;5088229;28;20201;-52
2022/04/20 03:08:20;;;;;;;0.73;0.60;;;2.90;99.90;;;;;;5084395;28;20282;-46
2022/04/20 03:11:05;;;;;;;0.60;0.60;;;2.80;99.90;;;;;;5087043;28;20240;-52
2022/04/20 03:13:49;;;;;;;0.60;0.60;;;2.80;99.90;;;;;;5088038;28;20276;-58
2022/04/20 03:16:33;;;;;;;0.40;0.40;;;2.80;99.90;;;;;;5083929;28;20193;-48
2022/04/20 03:19:18;;;;;;;0.47;0.47;;;2.70;99.90;;;;;;5087709;28;20196;-50
2022/04/20 03:22:02;;;;;;;0.47;0.47;;;2.80;99.90;;;;;;5086881;28;20244;-62
2022/04/20 03:24:46;;;;;;;1.93;1.10;;;2.80;99.90;;;;;;5084837;28;20185;-57
2022/04/20 03:27:31;;;;;;;1.17;0.40;;;2.80;99.90;;;;;;5088194;28;20283;-61
2022/04/20 03:30:15;;;;;;;1.40;0.70;;;2.80;99.90;;;;;;5085335;28;20208;-62
2022/04/20 03:33:00;;;;;;;0.20;0.20;;;2.80;99.90;;;;;;5085557;28;20212;-52
2022/04/20 03:35:44;;;;;;;0.70;0.70;;;2.80;99.90;;;;;;5087281;28;20185;-57
2022/04/20 03:38:29;;;;;;;0.70;0.63;;;2.70;99.90;;;;;;5083773;28;20316;-62
2022/04/20 03:41:14;;;;;;;0.67;0.40;;;2.70;99.90;;;;;;5086798;28;20189;-54
2022/04/20 03:43:58;;;;;;;1.50;1.07;;;2.70;99.90;;;;;;5087400;28;20270;-57
2022/04/20 03:46:43;;;;;;;1.00;0.90;;;2.70;99.90;;;;;;5082964;28;20252;-57
2022/04/20 03:49:27;;;;;;;1.10;0.80;;;2.70;99.90;;;;;;5087146;28;20204;-57
2022/04/20 03:52:11;;;;;;;0.37;0.37;;;2.70;99.90;;;;;;5085454;28;20192;-58
2022/04/20 03:54:55;;;;;;;3.33;0.87;;;2.70;99.90;;;;;;5083729;28;20232;-60
2022/04/20 03:57:40;;;;;;;0.67;0.67;;;2.60;99.90;;;;;;5087630;28;20258;-53
2022/04/20 04:00:25;;;;;;;0.47;0.47;;;2.50;99.90;;;;;;5084288;28;20192;-63
2022/04/20 04:03:10;;;;;;;0.90;0.90;;;2.50;99.90;;;;;;5085546;28;20208;-59
2022/04/20 04:05:56;;;;;;;4.60;0.80;;;2.50;99.90;;;;;;5087159;28;20205;-56
2022/04/20 04:08:40;;;;;;;4.10;0.70;;;2.40;99.90;;;;;;5082845;28;20220;-51
2022/04/20 04:11:24;;;;;;;0.93;0.60;;;2.40;99.90;;;;;;5085732;28;20194;-56
2022/04/20 04:14:09;;;;;;;0.77;0.67;;;2.50;99.90;;;;;;5087248;28;20259;-56
2022/04/20 04:16:53;;;;;;;0.93;0.93;;;2.40;99.90;;;;;;5084007;28;20252;-54
2022/04/20 04:19:38;;;;;;;2.13;1.43;;;2.40;99.90;;;;;;5087321;28;20192;-61
2022/04/20 04:22:22;;;;;;;3.50;0.80;;;2.50;99.90;;;;;;5065401;28;20271;-59
2022/04/20 04:25:07;;;;;;;1.87;0.97;;;2.50;99.90;;;;;;5078090;28;20217;-61
2022/04/20 04:27:52;;;;;;;0.73;0.73;;;2.50;99.90;;;;;;5081273;28;20256;-53
2022/04/20 04:30:36;;;;;;;1.23;0.50;;;2.60;99.90;;;;;;5078421;28;20202;-62
2022/04/20 04:33:20;;;;;;;3.70;1.30;;;2.60;99.90;;;;;;5079479;28;20197;-54
2022/04/20 04:36:05;;;;;;;3.20;1.90;;;2.90;99.90;;;;;;5080762;28;20247;-57
2022/04/20 04:38:49;;;;;;;0.80;0.80;;;2.90;99.90;;;;;;5077571;28;20201;-49
2022/04/20 04:41:34;;;;;;;0.70;0.70;;;3.00;99.90;;;;;;5081033;28;20193;-62
2022/04/20 04:44:19;;;;;;;0.53;0.40;;;2.90;99.90;;;;;;5080151;28;20205;-58
2022/04/20 04:50:07;;;;;;;1.27;0.67;;;2.80;99.90;;;;;;5066996;28;20209;-49
2022/04/20 04:52:52;;;;;;;0.47;0.47;;;2.50;99.90;;;;;;5080641;28;20197;-58
2022/04/20 04:55:37;;;;;;;1.67;0.60;;;2.50;99.90;;;;;;5080742;28;20303;-52
2022/04/20 04:58:21;;;;;;;1.53;1.00;;;2.60;99.90;;;;;;5086173;28;20276;-51
2022/04/20 05:01:06;;;;;;;1.03;1.03;;;2.40;99.90;;;;;;5083989;28;20242;-65
2022/04/20 05:03:53;;;;;;;2.57;0.90;;;2.20;99.90;;;;;;5076378;28;20190;-53
2022/04/20 05:06:38;;;;;;;0.67;0.57;;;2.30;99.90;;;;;;5075888;28;20192;-54
2022/04/20 05:09:23;;;;;;;3.67;0.70;;;2.40;99.90;;;;;;5073894;28;20237;-60
2022/04/20 05:12:08;;;;;;;0.93;0.90;;;2.40;99.90;;;;;;5075565;28;20185;-55
2022/04/20 05:14:52;;;;;;;0.70;0.40;;;2.50;99.90;;;;;;5074734;28;20236;-52
2022/04/20 05:17:37;;;;;;;0.70;0.70;;;2.50;99.90;;;;;;5071855;28;20204;-60
2022/04/20 05:20:21;;;;;;;1.17;1.17;;;2.60;99.90;;;;;;5076287;28;20220;-56
2022/04/20 05:23:08;;;;;;;1.23;1.23;;;2.60;99.90;;;;;;5075812;28;20198;-49
2022/04/20 05:25:52;;;;;;;0.70;0.70;;;2.50;99.90;;;;;;5070422;28;20216;-47
2022/04/20 05:28:37;;;;;;;1.40;0.60;;;2.70;99.90;;;;;;5075069;28;20213;-51
2022/04/20 05:31:22;;;;;;;0.73;0.67;;;2.80;99.90;;;;;;5079910;28;20282;-46
2022/04/20 05:34:07;;;;;;;0.77;0.77;;;2.80;99.90;;;;;;5082652;28;20193;-58
2022/04/20 05:42:59;;;;;;;0.63;0.60;;;2.50;99.90;;;;;;5081882;28;20250;-51
2022/04/20 05:45:43;;;;;;;1.23;1.13;;;2.50;99.90;;;;;;5078633;28;20237;-55
2022/04/20 05:48:28;;;;;;;0.67;0.67;;;2.50;99.90;;;;;;5079359;28;20240;-60
2022/04/20 05:51:13;;;;;;;0.53;0.53;;;2.60;99.90;;;;;;5083273;28;20229;-53
2022/04/20 05:53:58;;;;;;;0.87;0.73;;;2.70;99.90;;;;;;5075219;28;20286;-52
2022/04/20 05:56:42;;;;;;;1.80;0.70;;;2.80;99.90;;;;;;5079913;28;20228;-50
2022/04/20 05:59:26;;;;;;;1.37;0.73;;;2.80;99.90;;;;;;5083449;28;20196;-51
2022/04/20 06:02:11;;;;;;;0.90;0.90;;;2.80;99.90;;;;;;5082870;28;20201;-46
2022/04/20 06:04:55;;;;;;;0.80;0.80;;;2.90;99.90;;;;;;5075776;28;20239;-51
2022/04/20 06:07:39;;;;;;;0.73;0.73;;;3.10;99.90;;;;;;5085448;28;20289;-53
2022/04/20 06:10:24;;;;;;;1.10;0.80;;;3.00;99.90;;;;;;5087805;28;20194;-55
2022/04/20 06:13:09;;;;;;;1.20;1.00;;;3.00;99.90;;;;;;5079292;28;20191;-50
2022/04/20 06:15:54;;;;;;;1.37;1.13;;;3.00;99.90;;;;;;5086064;28;20189;-56
2022/04/20 06:18:38;;;;;;;0.60;0.60;;;3.20;99.90;;;;;;5084346;28;20239;-50
2022/04/20 06:21:22;;;;;;;1.10;1.10;;;3.30;99.90;;;;;;5085311;28;20197;-49
2022/04/20 06:24:07;;;;;;;3.90;0.77;;;3.20;99.90;;;;;;5083131;28;20288;-49
2022/04/20 06:26:51;;;;;;;1.10;1.00;;;3.40;99.90;;;;;;5084852;28;20223;-45
2022/04/20 06:29:36;;;;;;;0.70;0.70;;;3.50;99.90;;;;;;5087340;28;20212;-48
2022/04/20 06:32:23;;;;;;;1.20;1.20;;;3.80;99.90;;;;;;5087746;28;20189;-57
2022/04/20 06:35:08;;;;;;;2.00;1.30;;;3.90;99.90;;;;;;5081024;28;20251;-58
2022/04/20 06:37:52;;;;;;;0.83;0.80;;;3.80;99.90;;;;;;5083369;28;20213;-51
2022/04/20 06:40:37;;;;;;;1.00;1.00;;;4.00;99.90;;;;;;5085783;28;20196;-49
2022/04/20 06:43:21;;;;;;;1.97;1.10;;;3.90;99.90;;;;;;5079395;28;20193;-52
2022/04/20 06:46:06;;;;;;;1.07;0.90;;;4.10;99.90;;;;;;5086896;28;20241;-50
2022/04/20 06:48:50;;;;;;;0.83;0.83;;;4.30;99.90;;;;;;5085285;28;20246;-54
2022/04/20 07:00:44;;;;;;;0.70;0.70;;;4.80;99.90;;;;;;5083088;28;20257;-47
2022/04/20 07:03:28;;;;;;;0.70;0.70;;;5.00;99.90;;;;;;5083735;28;20188;-56
2022/04/20 07:06:13;;;;;;;0.93;0.90;;;5.20;99.90;;;;;;5084567;28;20247;-51
2022/04/20 07:08:58;;;;;;;1.00;0.87;;;5.30;99.90;;;;;;5083983;28;20255;-48
2022/04/20 07:11:42;;;;;;;1.13;1.03;;;5.50;99.90;;;;;;5086976;28;20201;-47
2022/04/20 07:14:27;;;;;;;0.83;0.83;;;5.60;99.90;;;;;;5078789;28;20201;-48
2022/04/20 07:17:12;;;;;;;2.63;1.30;;;5.80;99.90;;;;;;5086502;28;20223;-55
2022/04/20 07:19:57;;;;;;;0.87;0.87;;;6.00;99.90;;;;;;5087343;28;20196;-54
2022/04/20 07:22:42;;;;;;;1.43;1.33;;;6.20;99.90;;;;;;5083403;28;20197;-49
2022/04/20 07:25:26;;;;;;;1.10;1.00;;;6.50;99.90;;;;;;5084282;28;20189;-47
2022/04/20 07:28:11;;;;;;;1.40;1.20;;;6.80;99.90;;;;;;5085979;28;20240;-47
2022/04/20 07:30:55;;;;;;;0.80;0.80;;;7.20;99.90;;;;;;5082763;28;20247;-47
2022/04/20 07:33:39;;;;;;;1.10;1.10;;;7.40;99.10;;;;;;5080529;28;20285;-51
2022/04/20 07:36:23;;;;;;;1.03;1.00;;;7.80;98.40;;;;;;5082030;28;20200;-50
2022/04/20 07:39:08;;;;;;;1.40;1.27;;;8.10;97.60;;;;;;5085251;28;20196;-46
2022/04/20 07:41:52;;;;;;;1.10;1.03;;;8.40;97.30;;;;;;5086350;28;20204;-53
2022/04/20 07:44:36;;;;;;;1.90;1.20;;;8.80;96.50;;;;;;5077734;28;20257;-55
2022/04/20 07:47:22;;;;;;;1.60;1.47;;;8.90;95.50;;;;;;5084085;28;20236;-55
2022/04/20 07:50:19;;;;;;;1.40;1.30;;;9.10;94.80;;;;;;5086449;28;20184;-56
2022/04/20 07:53:05;;;;;;;1.37;1.20;;;9.10;94.40;;;;;;5079940;28;20188;-48
2022/04/20 07:55:49;;;;;;;1.60;1.60;;;9.20;93.50;;;;;;5084154;28;20243;-48
2022/04/20 07:58:33;;;;;;;1.13;1.10;;;9.50;92.10;;;;;;5086186;28;20200;-48
2022/04/20 08:01:19;;;;;;;1.00;1.00;;;9.70;91.00;;;;;;5081560;28;20212;-48
2022/04/20 08:04:04;;;;;;;1.50;1.30;;;9.90;90.50;;;;;;5078574;28;20318;-57
2022/04/20 08:06:48;;;;;;;1.23;1.23;;;9.90;90.30;;;;;;5083604;28;20185;-55
2022/04/20 08:09:32;;;;;;;2.70;1.40;;;9.90;90.00;;;;;;5081998;28;20209;-53
2022/04/20 08:12:17;;;;;;;1.67;1.10;;;9.70;87.00;;;;;;5085024;28;20239;-52
2022/04/20 08:15:01;;;;;;;1.10;1.00;;;9.60;88.10;;;;;;5074933;28;20281;-55
2022/04/20 08:17:46;;;;;;;1.13;1.10;;;10.00;87.70;;;;;;5082366;28;20193;-58
2022/04/20 08:20:30;;;;;;;0.93;0.93;;;10.20;86.30;;;;;;5083952;28;20269;-51
2022/04/20 08:26:56;;;;;;;1.10;1.00;;;10.50;85.40;;;;;;5077896;28;20262;-51
2022/04/20 08:29:42;;;;;;;2.90;1.37;;;10.60;85.30;;;;;;5084512;28;20200;-49
2022/04/20 08:32:26;;;;;;;0.97;0.97;;;10.80;84.40;;;;;;5082084;28;20188;-55
2022/04/20 08:35:55;;;;;;;1.57;1.47;;;10.80;82.90;;;;;;5073836;28;20285;-49
2022/04/20 08:38:39;;;;;;;1.53;1.30;;;11.00;81.70;;;;;;5081094;28;20229;-50
2022/04/20 08:41:24;;;;;;;4.80;3.40;;;10.40;81.10;;;;;;5080783;28;20219;-48
2022/04/20 08:44:13;;;;;;;1.00;1.00;;;10.80;81.90;;;;;;5077803;28;20177;-59
2022/04/20 08:47:01;;;;;;;1.63;1.53;;;11.40;80.40;;;;;;5085610;28;20216;-50
2022/04/20 08:49:47;;;;;;;1.83;1.10;;;11.20;79.10;;;;;;5083212;28;20227;-51
2022/04/20 08:52:37;;;;;;;1.30;1.20;;;11.10;79.80;;;;;;5082688;28;20313;-50
2022/04/20 08:55:21;;;;;;;1.60;1.43;;;11.40;79.10;;;;;;5079596;28;20193;-52
2022/04/20 08:58:07;;;;;;;2.60;1.37;;;11.60;78.70;;;;;;5082029;28;20198;-48
2022/04/20 09:00:52;;;;;;;1.40;1.37;;;11.90;78.20;;;;;;5083888;28;20248;-50
2022/04/20 09:03:36;;;;;;;1.77;1.27;;;12.40;76.00;;;;;;5080162;28;20245;-51
2022/04/20 09:06:21;;;;;;;1.70;1.60;;;12.40;76.80;;;;;;5083275;28;20199;-52
2022/04/20 09:09:05;;;;;;;1.70;1.60;;;12.80;75.00;;;;;;5085725;28;20253;-50
2022/04/20 09:11:50;;;;;;;1.30;1.20;;;12.80;73.60;;;;;;5084444;28;20224;-50
2022/04/20 09:14:35;;;;;;;1.10;1.10;;;13.00;74.20;;;;;;5075898;28;20180;-49
2022/04/20 09:17:21;;;;;;;1.33;1.23;;;13.10;74.60;;;;;;5083940;28;20627;-48
2022/04/20 09:20:07;;;;;;;1.47;1.37;;;13.60;72.00;;;;;;5083072;28;20250;-52
2022/04/20 09:23:03;;;;;;;2.10;1.50;;;13.50;72.40;;;;;;5083084;28;20234;-53
2022/04/20 09:25:49;;;;;;;2.63;1.57;;;14.10;70.80;;;;;;5085272;28;20220;-52
2022/04/20 09:28:34;;;;;;;2.73;2.43;;;15.00;69.00;;;;;;5083066;28;20279;-59
2022/04/20 09:31:42;;;;;;;1.60;1.50;;;15.50;66.40;;;;;;5083175;28;20291;-46
2022/04/20 09:34:34;;;;;;;1.10;1.10;;;15.40;65.00;;;;;;5079901;28;20212;-52
2022/04/20 09:37:18;;;;;;;1.43;1.33;;;15.80;64.80;;;;;;5083251;28;20210;-61
2022/04/20 09:40:06;;;;;;;19.87;11.00;;;16.00;64.10;;;;;;5083895;28;20205;-49
2022/04/20 09:43:00;;;;;;;5.07;2.83;;;16.40;64.30;;;;;;5089782;28;20277;-50
2022/04/20 09:46:04;;;;;;;1.77;1.67;;;17.30;61.20;;;;;;5086757;28;20291;-53
2022/04/20 09:48:52;;;;;;;1.17;1.17;;;18.30;57.90;;;;;;5087110;28;20270;-52
2022/04/20 09:51:40;;;;;;;1.50;1.40;;;17.30;56.90;;;;;;5090267;28;20211;-52
2022/04/20 09:54:29;;;;;;;2.90;2.58;;;15.90;61.90;;;;;;5079336;28;20201;-53
2022/04/20 09:57:14;;;;;;;1.80;1.70;;;17.40;58.80;;;;;;5084228;28;20280;-54
2022/04/20 09:59:59;;;;;;;1.42;1.40;;;17.30;57.80;;;;;;5089544;28;20196;-56
2022/04/20 10:02:47;;;;;;;1.10;1.10;;;17.30;58.80;;;;;;5084020;28;20187;-50
2022/04/20 10:05:32;;;;;;;2.30;2.17;;;18.10;57.30;;;;;;5085027;28;20228;-52
2022/04/20 10:08:18;;;;;;;6.75;3.95;;;18.90;55.50;;;;;;5088392;28;20262;-52
2022/04/20 10:11:04;;;;;;;4.30;3.90;;;18.70;56.20;;;;;;5085065;28;20189;-57
2022/04/20 10:17:05;;;;;;;1.27;1.27;;;19.10;53.50;;;;;;5087373;28;20208;-56
2022/04/20 10:19:49;;;;;;;6.13;4.32;;;19.80;52.50;;;;;;5083875;28;20212;-52
2022/04/20 10:22:36;;;;;;;5.50;4.65;;;19.40;52.10;;;;;;5088645;28;20208;-51
2022/04/20 10:25:22;;;;;;;4.20;3.85;;;18.90;53.20;;;;;;5081897;28;20192;-50
2022/04/20 10:28:21;;;;;;;2.58;1.30;;;18.00;53.30;;;;;;5084905;28;20228;-51
2022/04/20 10:31:11;;;;;;;1.95;1.80;;;18.90;53.00;;;;;;5087954;28;20205;-59
2022/04/20 10:33:56;;;;;;;2.95;2.60;;;20.40;51.80;;;;;;5081593;28;20204;-64
2022/04/20 10:36:59;;;;;;;1.20;1.20;;;21.00;50.70;;;;;;5084958;28;20227;-55
2022/04/20 10:39:43;;;;;;;2.95;2.72;;;19.80;52.60;;;;;;5087970;28;20184;-52
2022/04/20 10:42:28;;;;;;;4.10;1.55;;;21.40;49.60;;;;;;5087137;28;20328;-58
2022/04/20 10:45:15;;;;;;;1.40;1.40;;;20.70;49.50;;;;;;5078305;28;20278;-63
2022/04/20 10:47:59;;;;;;;1.30;1.30;;;21.90;48.80;;;;;;5087478;28;20293;-51
2022/04/20 10:51:14;;;;;;;0.90;0.90;;;22.70;46.20;;;;;;5085967;28;20611;-52
2022/04/20 10:54:17;;;;;;;1.20;1.20;;;21.90;45.40;;;;;;5078494;28;20246;-57
2022/04/20 10:57:02;;;;;;;3.15;2.85;;;22.30;45.80;;;;;;5088087;28;20197;-56
2022/04/20 11:00:19;;;;;;;3.72;3.10;;;23.20;44.60;;;;;;5085378;28;20243;-59
2022/04/20 11:03:05;;;;;;;1.52;1.42;;;23.80;43.80;;;;;;5080565;28;20247;-52
2022/04/20 11:05:55;;;;;;;1.42;1.33;;;24.80;42.70;;;;;;5086932;28;20243;-52
2022/04/20 11:08:39;;;;;;;1.40;1.30;;;23.90;43.30;;;;;;5086954;28;20193;-51
2022/04/20 11:21:31;;;;;;;33.38;17.70;;;24.50;41.90;;;;;;5074784;28;20237;-53
2022/04/20 11:24:28;;;;;;;16.08;12.52;;;24.80;42.60;;;;;;5066266;28;20247;-61
2022/04/20 11:27:13;;;;;;;13.60;10.73;;;24.00;42.20;;;;;;5061312;28;20201;-52
2022/04/20 11:29:58;;;;;;;7.72;6.82;;;24.80;42.20;;;;;;5045591;28;20202;-52
2022/04/20 11:32:42;;;;;;;2.47;2.38;;;25.10;42.00;;;;;;5044401;28;20202;-50
2022/04/20 11:35:27;;;;;;;6.22;5.55;;;25.50;40.80;;;;;;5046844;28;20194;-50
2022/04/20 11:38:11;;;;;;;2.60;2.40;;;25.40;41.70;;;;;;5044666;28;20238;-59
2022/04/20 11:40:56;;;;;;;5.15;4.25;;;25.00;41.00;;;;;;5045450;28;20186;-56
2022/04/20 11:43:41;;;;;;;3.00;1.60;;;25.50;41.20;;;;;;5046858;28;20202;-61
2022/04/20 11:46:26;;;;;;;2.15;2.10;;;25.00;40.80;;;;;;5043920;28;20230;-55
2022/04/20 11:49:10;;;;;;;1.95;1.33;;;24.00;42.20;;;;;;5046210;28;20186;-47
2022/04/20 11:51:57;;;;;;;1.13;1.13;;;24.70;40.00;;;;;;5056434;28;20240;-63
2022/04/20 11:54:46;;;;;;;2.67;2.20;;;24.60;40.30;;;;;;5064818;28;20217;-59
2022/04/20 11:57:30;;;;;;;1.20;1.20;;;24.40;41.90;;;;;;5067451;28;20217;-52
2022/04/20 12:00:17;;;;;;;1.35;1.25;;;22.20;44.00;;;;;;5066797;28;20198;-59
2022/04/20 12:03:02;;;;;;;1.58;1.58;;;24.80;41.50;;;;;;5064539;28;20201;-48
2022/04/20 12:06:12;;;;;;;1.15;1.10;;;24.20;40.40;;;;;;5067033;28;20198;-52
2022/04/20 12:08:57;;;;;;;1.10;0.98;;;26.40;40.40;;;;;;5066649;28;20272;-62
2022/04/20 12:11:42;;;;;;;1.77;1.13;;;27.50;36.50;;;;;;5065128;28;20193;-60
2022/04/20 12:14:32;;;;;;;2.50;1.40;;;27.50;36.00;;;;;;5067702;28;20252;-55
2022/04/20 12:17:22;;;;;;;2.83;1.42;;;27.00;37.50;;;;;;5066460;28;20193;-58
2022/04/20 12:20:07;;;;;;;0.80;0.80;;;26.80;37.80;;;;;;5065411;28;20201;-57
2022/04/20 12:23:04;;;;;;;1.10;1.10;;;27.20;36.00;;;;;;5067079;28;20250;-57
2022/04/20 12:25:53;;;;;;;0.70;0.70;;;27.10;36.30;;;;;;5065968;28;20192;-55
2022/04/20 12:28:41;;;;;;;5.32;1.65;;;28.50;35.50;;;;;;5065222;28;20261;-55
2022/04/20 12:31:26;;;;;;;1.17;1.17;;;28.60;34.80;;;;;;5067486;28;20328;-57
2022/04/20 12:34:15;;;;;;;0.93;0.93;;;27.70;35.00;;;;;;5063886;28;20198;-52
2022/04/20 12:37:08;;;;;;;1.45;1.25;;;27.40;34.20;;;;;;5065216;28;20294;-47
2022/04/20 12:39:53;;;;;;;1.00;1.00;;;27.70;34.40;;;;;;5086378;28;20247;-52
2022/04/20 12:42:56;;;;;;;1.13;1.13;;;29.00;33.00;;;;;;5084330;28;20185;-52
2022/04/20 12:45:40;;;;;;;1.85;1.13;;;28.70;33.20;;;;;;5088669;28;20235;-55
2022/04/20 12:48:25;;;;;;;0.80;0.80;;;27.90;33.10;;;;;;5084941;28;20238;-62
2022/04/20 12:51:23;;;;;;;1.00;1.00;;;28.30;34.40;;;;;;5082168;28;20239;-60
2022/04/20 12:54:08;;;;;;;1.38;1.15;;;26.70;34.90;;;;;;5084069;28;20232;-55
2022/04/20 13:03:17;;;;;;;0.90;0.90;;;26.20;33.10;;;;;;5085055;28;20244;-63
2022/04/20 13:06:03;;;;;;;0.85;0.85;;;26.90;34.20;;;;;;5086061;28;20212;-62
2022/04/20 13:08:47;;;;;;;0.90;0.90;;;25.20;34.10;;;;;;5083650;28;20185;-65
2022/04/20 13:11:32;;;;;;;0.88;0.88;;;25.50;35.60;;;;;;5084976;28;20204;-61
2022/04/20 13:14:17;;;;;;;1.08;1.00;;;24.90;35.10;;;;;;5085329;28;20192;-59
2022/04/20 13:17:02;;;;;;;0.98;0.98;;;26.10;34.40;;;;;;5088162;28;20197;-53
2022/04/20 13:19:46;;;;;;;1.17;1.17;;;27.60;33.30;;;;;;5090598;28;20201;-62
2022/04/20 13:22:30;;;;;;;0.88;0.88;;;27.30;31.80;;;;;;5090462;28;20195;-57
2022/04/20 13:28:17;;;;;;;1.10;1.10;;;29.70;31.80;;;;;;5091839;28;20246;-63
2022/04/20 13:31:02;;;;;;;0.88;0.88;;;28.50;31.10;;;;;;5090736;28;20185;-64
2022/04/20 13:33:46;;;;;;;0.73;0.73;;;28.90;30.20;;;;;;5087626;28;20196;-64
2022/04/20 13:36:31;;;;;;;1.00;1.00;;;29.10;31.20;;;;;;5090639;28;20286;-59
2022/04/20 13:39:15;;;;;;;1.23;1.23;;;29.90;31.50;;;;;;5089289;28;20235;-66
2022/04/20 13:41:59;;;;;;;1.85;1.05;;;28.50;32.20;;;;;;5088745;28;20185;-64
2022/04/20 13:44:44;;;;;;;1.17;1.10;;;28.10;32.40;;;;;;5090508;28;20193;-60
2022/04/20 13:47:27;;;;;;;1.30;1.20;;;28.00;34.40;;;;;;5087789;28;20312;-50
2022/04/20 13:50:11;;;;;;;1.25;1.20;;;27.00;33.90;;;;;;5083392;28;20189;-59
2022/04/20 13:52:56;;;;;;;2.17;0.90;;;28.90;32.80;;;;;;5086150;28;20285;-62
2022/04/20 13:55:40;;;;;;;1.00;1.00;;;30.40;33.00;;;;;;5084994;28;20204;-62
2022/04/20 13:58:24;;;;;;;1.15;1.15;;;30.60;31.70;;;;;;5085120;28;20291;-62
2022/04/20 14:01:09;;;;;;;1.70;1.48;;;28.60;32.00;;;;;;5087421;28;20193;-62
2022/04/20 14:03:53;;;;;;;1.10;1.10;;;27.30;32.70;;;;;;5085725;28;20243;-59
2022/04/20 14:06:38;;;;;;;1.00;1.00;;;28.40;33.00;;;;;;5082826;28;20204;-58
2022/04/20 14:09:22;;;;;;;2.75;1.80;;;27.60;33.70;;;;;;5085978;28;20238;-61
2022/04/20 14:12:07;;;;;;;5.22;3.42;;;28.00;33.40;;;;;;5087434;28;20193;-57
2022/04/20 14:14:52;;;;;;;1.02;1.02;;;29.60;33.70;;;;;;5089640;28;20193;-58
2022/04/20 14:17:36;;;;;;;1.48;0.93;;;30.20;33.00;;;;;;5085193;28;20271;-55
2022/04/20 14:20:20;;;;;;;1.27;1.27;;;30.50;33.80;;;;;;5085086;28;20189;-62
2022/04/20 14:23:05;;;;;;;1.77;1.23;;;26.40;34.80;;;;;;5089218;28;20185;-61
2022/04/20 14:32:11;;;;;;;1.08;1.08;;;26.60;35.60;;;;;;5087746;28;20192;-61
2022/04/20 14:34:56;;;;;;;1.02;1.02;;;26.50;34.90;;;;;;5085247;28;20209;-60
2022/04/20 14:37:40;;;;;;;1.40;1.40;;;27.70;34.50;;;;;;5086337;28;20286;-62
2022/04/20 14:40:24;;;;;;;1.55;1.50;;;26.80;35.70;;;;;;5087334;28;20196;-63
2022/04/20 14:43:08;;;;;;;1.02;1.00;;;27.60;34.90;;;;;;5086340;28;20215;-61
2022/04/20 14:45:53;;;;;;;1.30;1.20;;;29.40;35.00;;;;;;5085625;28;20216;-53
2022/04/20 14:48:37;;;;;;;1.08;1.08;;;27.70;34.60;;;;;;5087627;28;20282;-58
2022/04/20 14:51:22;;;;;;;1.30;1.30;;;28.40;34.00;;;;;;5083815;28;20197;-58
2022/04/20 14:54:08;;;;;;;1.10;1.10;;;27.00;35.10;;;;;;5088257;28;20273;-52
2022/04/20 14:56:52;;;;;;;1.02;1.02;;;28.40;35.30;;;;;;5085527;28;20200;-56
2022/04/20 14:59:37;;;;;;;0.98;0.98;;;27.80;35.00;;;;;;5086960;28;20216;-58
2022/04/20 15:02:21;;;;;;;1.30;1.30;;;28.40;33.40;;;;;;5086098;28;20189;-60
2022/04/20 15:05:06;;;;;;;1.00;1.00;;;27.80;33.70;;;;;;5085106;28;20314;-62
2022/04/20 15:07:51;;;;;;;1.20;1.20;;;29.00;33.90;;;;;;5087268;28;20220;-58
2022/04/20 15:10:37;;;;;;;1.00;1.00;;;26.40;34.20;;;;;;5088651;28;20243;-61
2022/04/20 15:13:24;;;;;;;1.02;1.00;;;25.20;36.40;;;;;;5082903;28;20254;-56
2022/04/20 15:16:08;;;;;;;1.08;1.08;;;25.00;35.60;;;;;;5086867;28;20228;-54
2022/04/20 15:18:53;;;;;;;0.90;0.90;;;25.10;35.20;;;;;;5087615;28;20224;-59
2022/04/20 15:21:38;;;;;;;0.98;0.90;;;24.40;34.90;;;;;;5083018;28;20197;-60
2022/04/20 15:24:23;;;;;;;0.77;0.77;;;24.30;36.20;;;;;;5088706;28;20210;-60
2022/04/20 15:27:07;;;;;;;1.08;1.05;;;23.40;35.70;;;;;;5084314;28;20250;-62